sensor_id;sensor_type;location;lat;lon;timestamp;P1;durP1;ratioP1;P2;durP2;ratioP2
26407;SDS011;14583;43.604;1.364;2023-09-18T00:02:25;7.55;;;3.47;;
26407;SDS011;14583;43.604;1.364;2023-09-18T00:04:51;8.30;;;3.35;;
26407;SDS011;14583;43.604;1.364;2023-09-18T00:07:17;11.68;;;2.95;;
26407;SDS011;14583;43.604;1.364;2023-09-18T00:09:43;5.72;;;2.97;;
26407;SDS011;14583;43.604;1.364;2023-09-18T00:12:08;6.22;;;2.83;;
26407;SDS011;14583;43.604;1.364;2023-09-18T00:14:35;11.23;;;3.33;;
26407;SDS011;14583;43.604;1.364;2023-09-18T00:17:01;6.25;;;2.95;;
26407;SDS011;14583;43.604;1.364;2023-09-18T00:19:27;6.03;;;2.90;;
26407;SDS011;14583;43.604;1.364;2023-09-18T00:21:53;14.15;;;3.08;;
26407;SDS011;14583;43.604;1.364;2023-09-18T00:24:19;5.72;;;2.92;;
26407;SDS011;14583;43.604;1.364;2023-09-18T00:26:47;7.80;;;3.00;;
26407;SDS011;14583;43.604;1.364;2023-09-18T00:29:13;5.43;;;2.90;;
26407;SDS011;14583;43.604;1.364;2023-09-18T00:31:39;10.00;;;3.40;;
26407;SDS011;14583;43.604;1.364;2023-09-18T00:34:04;8.07;;;3.53;;
26407;SDS011;14583;43.604;1.364;2023-09-18T00:36:30;7.68;;;2.75;;
26407;SDS011;14583;43.604;1.364;2023-09-18T00:38:56;9.98;;;2.80;;
26407;SDS011;14583;43.604;1.364;2023-09-18T00:41:21;7.15;;;2.63;;
26407;SDS011;14583;43.604;1.364;2023-09-18T00:43:47;9.88;;;3.25;;
26407;SDS011;14583;43.604;1.364;2023-09-18T00:46:13;11.50;;;3.50;;
26407;SDS011;14583;43.604;1.364;2023-09-18T00:48:39;7.07;;;2.92;;
26407;SDS011;14583;43.604;1.364;2023-09-18T00:51:05;16.88;;;3.20;;
26407;SDS011;14583;43.604;1.364;2023-09-18T00:53:31;11.77;;;3.40;;
26407;SDS011;14583;43.604;1.364;2023-09-18T00:55:57;10.48;;;2.67;;
26407;SDS011;14583;43.604;1.364;2023-09-18T00:58:25;8.70;;;3.08;;
26407;SDS011;14583;43.604;1.364;2023-09-18T01:00:51;10.80;;;3.10;;
26407;SDS011;14583;43.604;1.364;2023-09-18T01:03:18;9.35;;;3.33;;
26407;SDS011;14583;43.604;1.364;2023-09-18T01:05:47;8.05;;;2.92;;
26407;SDS011;14583;43.604;1.364;2023-09-18T01:08:13;9.75;;;3.30;;
26407;SDS011;14583;43.604;1.364;2023-09-18T01:10:52;11.85;;;3.40;;
26407;SDS011;14583;43.604;1.364;2023-09-18T01:13:35;10.13;;;3.83;;
26407;SDS011;14583;43.604;1.364;2023-09-18T01:16:07;6.72;;;3.30;;
26407;SDS011;14583;43.604;1.364;2023-09-18T01:18:39;9.10;;;3.38;;
26407;SDS011;14583;43.604;1.364;2023-09-18T01:21:18;11.40;;;3.60;;
26407;SDS011;14583;43.604;1.364;2023-09-18T01:23:45;9.00;;;3.40;;
26407;SDS011;14583;43.604;1.364;2023-09-18T01:26:11;8.93;;;3.20;;
26407;SDS011;14583;43.604;1.364;2023-09-18T01:28:37;10.23;;;3.60;;
26407;SDS011;14583;43.604;1.364;2023-09-18T01:31:02;9.00;;;3.45;;
26407;SDS011;14583;43.604;1.364;2023-09-18T01:33:28;12.13;;;3.45;;
26407;SDS011;14583;43.604;1.364;2023-09-18T01:35:55;8.30;;;3.30;;
26407;SDS011;14583;43.604;1.364;2023-09-18T01:38:23;5.85;;;3.33;;
26407;SDS011;14583;43.604;1.364;2023-09-18T01:40:49;11.85;;;3.22;;
26407;SDS011;14583;43.604;1.364;2023-09-18T01:43:16;6.38;;;3.00;;
26407;SDS011;14583;43.604;1.364;2023-09-18T01:45:42;11.55;;;3.40;;
26407;SDS011;14583;43.604;1.364;2023-09-18T01:48:08;7.75;;;3.45;;
26407;SDS011;14583;43.604;1.364;2023-09-18T01:50:34;10.88;;;3.60;;
26407;SDS011;14583;43.604;1.364;2023-09-18T01:53:01;12.98;;;3.33;;
26407;SDS011;14583;43.604;1.364;2023-09-18T01:55:28;9.98;;;3.60;;
26407;SDS011;14583;43.604;1.364;2023-09-18T01:57:54;8.60;;;3.40;;
26407;SDS011;14583;43.604;1.364;2023-09-18T02:00:20;8.75;;;3.75;;
26407;SDS011;14583;43.604;1.364;2023-09-18T02:02:46;9.98;;;3.35;;
26407;SDS011;14583;43.604;1.364;2023-09-18T02:05:12;10.27;;;3.78;;
26407;SDS011;14583;43.604;1.364;2023-09-18T02:07:38;7.40;;;3.40;;
26407;SDS011;14583;43.604;1.364;2023-09-18T02:10:03;13.52;;;4.82;;
26407;SDS011;14583;43.604;1.364;2023-09-18T02:12:30;9.65;;;3.92;;
26407;SDS011;14583;43.604;1.364;2023-09-18T02:14:55;14.70;;;3.42;;
26407;SDS011;14583;43.604;1.364;2023-09-18T02:17:23;7.03;;;3.58;;
26407;SDS011;14583;43.604;1.364;2023-09-18T02:19:49;10.55;;;3.65;;
26407;SDS011;14583;43.604;1.364;2023-09-18T02:22:15;12.98;;;3.92;;
26407;SDS011;14583;43.604;1.364;2023-09-18T02:24:40;12.38;;;3.60;;
26407;SDS011;14583;43.604;1.364;2023-09-18T02:27:06;12.30;;;4.13;;
26407;SDS011;14583;43.604;1.364;2023-09-18T02:29:32;12.38;;;3.90;;
26407;SDS011;14583;43.604;1.364;2023-09-18T02:31:57;11.52;;;3.50;;
26407;SDS011;14583;43.604;1.364;2023-09-18T02:34:23;9.48;;;4.20;;
26407;SDS011;14583;43.604;1.364;2023-09-18T02:36:49;9.63;;;3.95;;
26407;SDS011;14583;43.604;1.364;2023-09-18T02:39:14;9.77;;;3.72;;
26407;SDS011;14583;43.604;1.364;2023-09-18T02:41:40;8.82;;;4.07;;
26407;SDS011;14583;43.604;1.364;2023-09-18T02:44:05;10.75;;;4.07;;
26407;SDS011;14583;43.604;1.364;2023-09-18T02:46:31;9.70;;;3.58;;
26407;SDS011;14583;43.604;1.364;2023-09-18T02:48:57;10.43;;;3.70;;
26407;SDS011;14583;43.604;1.364;2023-09-18T02:51:22;6.38;;;4.00;;
26407;SDS011;14583;43.604;1.364;2023-09-18T02:53:48;7.95;;;4.20;;
26407;SDS011;14583;43.604;1.364;2023-09-18T02:56:14;10.55;;;3.85;;
26407;SDS011;14583;43.604;1.364;2023-09-18T02:58:40;12.30;;;4.68;;
26407;SDS011;14583;43.604;1.364;2023-09-18T03:01:06;8.52;;;4.38;;
26407;SDS011;14583;43.604;1.364;2023-09-18T03:03:32;12.35;;;4.18;;
26407;SDS011;14583;43.604;1.364;2023-09-18T03:06:02;9.35;;;3.85;;
26407;SDS011;14583;43.604;1.364;2023-09-18T03:08:29;12.15;;;4.20;;
26407;SDS011;14583;43.604;1.364;2023-09-18T03:10:55;9.90;;;3.75;;
26407;SDS011;14583;43.604;1.364;2023-09-18T03:13:21;9.43;;;3.50;;
26407;SDS011;14583;43.604;1.364;2023-09-18T03:15:47;8.20;;;3.25;;
26407;SDS011;14583;43.604;1.364;2023-09-18T03:18:13;8.13;;;3.85;;
26407;SDS011;14583;43.604;1.364;2023-09-18T03:20:39;11.57;;;3.72;;
26407;SDS011;14583;43.604;1.364;2023-09-18T03:23:05;11.52;;;3.35;;
26407;SDS011;14583;43.604;1.364;2023-09-18T03:25:31;10.25;;;3.08;;
26407;SDS011;14583;43.604;1.364;2023-09-18T03:27:57;14.32;;;3.92;;
26407;SDS011;14583;43.604;1.364;2023-09-18T03:30:23;15.98;;;3.38;;
26407;SDS011;14583;43.604;1.364;2023-09-18T03:32:49;11.32;;;4.30;;
26407;SDS011;14583;43.604;1.364;2023-09-18T03:35:16;12.18;;;3.60;;
26407;SDS011;14583;43.604;1.364;2023-09-18T03:37:45;9.02;;;3.70;;
26407;SDS011;14583;43.604;1.364;2023-09-18T03:40:12;13.93;;;4.20;;
26407;SDS011;14583;43.604;1.364;2023-09-18T03:42:38;15.98;;;3.60;;
26407;SDS011;14583;43.604;1.364;2023-09-18T03:45:07;12.57;;;3.60;;
26407;SDS011;14583;43.604;1.364;2023-09-18T03:47:34;11.43;;;4.10;;
26407;SDS011;14583;43.604;1.364;2023-09-18T03:50:01;13.38;;;4.10;;
26407;SDS011;14583;43.604;1.364;2023-09-18T03:52:27;11.60;;;4.13;;
26407;SDS011;14583;43.604;1.364;2023-09-18T03:54:53;11.95;;;3.90;;
26407;SDS011;14583;43.604;1.364;2023-09-18T03:57:19;9.73;;;4.13;;
26407;SDS011;14583;43.604;1.364;2023-09-18T03:59:44;11.05;;;3.90;;
26407;SDS011;14583;43.604;1.364;2023-09-18T04:02:10;10.48;;;4.10;;
26407;SDS011;14583;43.604;1.364;2023-09-18T04:04:35;16.67;;;4.35;;
26407;SDS011;14583;43.604;1.364;2023-09-18T04:07:05;10.38;;;3.72;;
26407;SDS011;14583;43.604;1.364;2023-09-18T04:09:31;14.63;;;3.85;;
26407;SDS011;14583;43.604;1.364;2023-09-18T04:11:57;14.80;;;3.90;;
26407;SDS011;14583;43.604;1.364;2023-09-18T04:14:23;14.77;;;4.28;;
26407;SDS011;14583;43.604;1.364;2023-09-18T04:16:49;10.98;;;3.65;;
26407;SDS011;14583;43.604;1.364;2023-09-18T04:19:15;13.65;;;3.85;;
26407;SDS011;14583;43.604;1.364;2023-09-18T04:21:41;11.48;;;3.53;;
26407;SDS011;14583;43.604;1.364;2023-09-18T04:24:06;14.90;;;3.90;;
26407;SDS011;14583;43.604;1.364;2023-09-18T04:26:32;9.68;;;3.83;;
26407;SDS011;14583;43.604;1.364;2023-09-18T04:28:58;12.48;;;4.10;;
26407;SDS011;14583;43.604;1.364;2023-09-18T04:31:25;12.98;;;3.88;;
26407;SDS011;14583;43.604;1.364;2023-09-18T04:33:52;7.55;;;3.72;;
26407;SDS011;14583;43.604;1.364;2023-09-18T04:36:18;18.48;;;4.60;;
26407;SDS011;14583;43.604;1.364;2023-09-18T04:38:44;9.20;;;3.53;;
26407;SDS011;14583;43.604;1.364;2023-09-18T04:41:10;12.15;;;4.18;;
26407;SDS011;14583;43.604;1.364;2023-09-18T04:43:36;20.15;;;4.25;;
26407;SDS011;14583;43.604;1.364;2023-09-18T04:46:05;15.52;;;4.38;;
26407;SDS011;14583;43.604;1.364;2023-09-18T04:48:31;13.57;;;4.30;;
26407;SDS011;14583;43.604;1.364;2023-09-18T04:50:58;14.35;;;3.83;;
26407;SDS011;14583;43.604;1.364;2023-09-18T04:53:25;12.18;;;4.65;;
26407;SDS011;14583;43.604;1.364;2023-09-18T04:55:52;15.52;;;4.00;;
26407;SDS011;14583;43.604;1.364;2023-09-18T04:58:18;16.02;;;4.22;;
26407;SDS011;14583;43.604;1.364;2023-09-18T05:00:44;12.95;;;4.30;;
26407;SDS011;14583;43.604;1.364;2023-09-18T05:03:11;14.10;;;4.15;;
26407;SDS011;14583;43.604;1.364;2023-09-18T05:05:37;10.10;;;4.18;;
26407;SDS011;14583;43.604;1.364;2023-09-18T05:08:05;11.43;;;4.50;;
26407;SDS011;14583;43.604;1.364;2023-09-18T05:10:34;15.05;;;4.38;;
26407;SDS011;14583;43.604;1.364;2023-09-18T05:13:00;20.55;;;8.32;;
26407;SDS011;14583;43.604;1.364;2023-09-18T05:15:25;18.52;;;7.78;;
26407;SDS011;14583;43.604;1.364;2023-09-18T05:17:51;16.23;;;6.13;;
26407;SDS011;14583;43.604;1.364;2023-09-18T05:20:20;12.27;;;4.80;;
26407;SDS011;14583;43.604;1.364;2023-09-18T05:22:49;14.07;;;4.50;;
26407;SDS011;14583;43.604;1.364;2023-09-18T05:25:15;20.33;;;4.60;;
26407;SDS011;14583;43.604;1.364;2023-09-18T05:27:41;26.35;;;5.05;;
26407;SDS011;14583;43.604;1.364;2023-09-18T05:30:17;17.45;;;4.60;;
26407;SDS011;14583;43.604;1.364;2023-09-18T05:32:46;17.00;;;4.90;;
26407;SDS011;14583;43.604;1.364;2023-09-18T05:35:13;15.68;;;4.78;;
26407;SDS011;14583;43.604;1.364;2023-09-18T05:37:40;10.85;;;4.30;;
26407;SDS011;14583;43.604;1.364;2023-09-18T05:40:06;11.18;;;4.57;;
26407;SDS011;14583;43.604;1.364;2023-09-18T05:42:35;15.55;;;4.55;;
26407;SDS011;14583;43.604;1.364;2023-09-18T05:45:02;17.60;;;7.97;;
26407;SDS011;14583;43.604;1.364;2023-09-18T05:47:29;20.80;;;6.07;;
26407;SDS011;14583;43.604;1.364;2023-09-18T05:49:57;18.27;;;4.68;;
26407;SDS011;14583;43.604;1.364;2023-09-18T05:52:22;16.58;;;4.20;;
26407;SDS011;14583;43.604;1.364;2023-09-18T05:54:49;15.90;;;5.07;;
26407;SDS011;14583;43.604;1.364;2023-09-18T05:57:14;14.70;;;4.80;;
26407;SDS011;14583;43.604;1.364;2023-09-18T05:59:41;15.15;;;4.72;;
26407;SDS011;14583;43.604;1.364;2023-09-18T06:02:09;15.93;;;5.07;;
26407;SDS011;14583;43.604;1.364;2023-09-18T06:04:34;13.88;;;5.00;;
26407;SDS011;14583;43.604;1.364;2023-09-18T06:07:02;19.42;;;5.15;;
26407;SDS011;14583;43.604;1.364;2023-09-18T06:09:28;28.30;;;7.43;;
26407;SDS011;14583;43.604;1.364;2023-09-18T06:11:54;32.47;;;8.48;;
26407;SDS011;14583;43.604;1.364;2023-09-18T06:14:20;33.85;;;8.55;;
26407;SDS011;14583;43.604;1.364;2023-09-18T06:16:45;32.95;;;9.13;;
26407;SDS011;14583;43.604;1.364;2023-09-18T06:19:11;37.40;;;9.10;;
26407;SDS011;14583;43.604;1.364;2023-09-18T06:21:37;43.22;;;8.80;;
26407;SDS011;14583;43.604;1.364;2023-09-18T06:24:02;51.90;;;11.52;;
26407;SDS011;14583;43.604;1.364;2023-09-18T06:26:28;52.22;;;11.18;;
26407;SDS011;14583;43.604;1.364;2023-09-18T06:28:54;39.80;;;9.85;;
26407;SDS011;14583;43.604;1.364;2023-09-18T06:31:20;52.00;;;11.63;;
26407;SDS011;14583;43.604;1.364;2023-09-18T06:33:46;46.35;;;10.80;;
26407;SDS011;14583;43.604;1.364;2023-09-18T06:36:12;36.70;;;11.65;;
26407;SDS011;14583;43.604;1.364;2023-09-18T06:38:38;31.58;;;10.35;;
26407;SDS011;14583;43.604;1.364;2023-09-18T06:41:04;53.42;;;13.57;;
26407;SDS011;14583;43.604;1.364;2023-09-18T06:43:30;88.60;;;13.57;;
26407;SDS011;14583;43.604;1.364;2023-09-18T06:45:55;50.45;;;14.25;;
26407;SDS011;14583;43.604;1.364;2023-09-18T06:48:23;177.07;;;14.90;;
26407;SDS011;14583;43.604;1.364;2023-09-18T06:50:49;95.10;;;14.18;;
26407;SDS011;14583;43.604;1.364;2023-09-18T06:53:15;54.70;;;14.35;;
26407;SDS011;14583;43.604;1.364;2023-09-18T06:55:41;56.30;;;13.48;;
26407;SDS011;14583;43.604;1.364;2023-09-18T06:58:07;50.65;;;14.50;;
26407;SDS011;14583;43.604;1.364;2023-09-18T07:00:32;51.67;;;14.85;;
26407;SDS011;14583;43.604;1.364;2023-09-18T07:02:58;64.30;;;15.90;;
26407;SDS011;14583;43.604;1.364;2023-09-18T07:05:24;63.22;;;16.00;;
26407;SDS011;14583;43.604;1.364;2023-09-18T07:07:49;47.85;;;15.95;;
26407;SDS011;14583;43.604;1.364;2023-09-18T07:10:15;52.72;;;17.30;;
26407;SDS011;14583;43.604;1.364;2023-09-18T07:12:41;66.32;;;16.63;;
26407;SDS011;14583;43.604;1.364;2023-09-18T07:15:06;45.65;;;16.17;;
26407;SDS011;14583;43.604;1.364;2023-09-18T07:17:33;35.05;;;14.38;;
26407;SDS011;14583;43.604;1.364;2023-09-18T07:20:00;27.23;;;14.52;;
26407;SDS011;14583;43.604;1.364;2023-09-18T07:22:26;25.65;;;14.98;;
26407;SDS011;14583;43.604;1.364;2023-09-18T07:24:51;24.63;;;12.90;;
26407;SDS011;14583;43.604;1.364;2023-09-18T07:27:17;25.17;;;13.85;;
26407;SDS011;14583;43.604;1.364;2023-09-18T07:29:43;28.30;;;13.82;;
26407;SDS011;14583;43.604;1.364;2023-09-18T07:32:08;27.23;;;14.88;;
26407;SDS011;14583;43.604;1.364;2023-09-18T07:34:34;30.50;;;14.23;;
26407;SDS011;14583;43.604;1.364;2023-09-18T07:37:00;21.92;;;13.38;;
26407;SDS011;14583;43.604;1.364;2023-09-18T07:39:26;38.85;;;13.95;;
26407;SDS011;14583;43.604;1.364;2023-09-18T07:41:51;22.10;;;13.27;;
26407;SDS011;14583;43.604;1.364;2023-09-18T07:44:21;25.60;;;14.07;;
26407;SDS011;14583;43.604;1.364;2023-09-18T07:46:47;34.17;;;15.02;;
26407;SDS011;14583;43.604;1.364;2023-09-18T07:49:13;26.20;;;14.98;;
26407;SDS011;14583;43.604;1.364;2023-09-18T07:51:43;79.10;;;16.30;;
26407;SDS011;14583;43.604;1.364;2023-09-18T07:54:09;21.88;;;15.00;;
26407;SDS011;14583;43.604;1.364;2023-09-18T07:56:35;24.58;;;15.18;;
26407;SDS011;14583;43.604;1.364;2023-09-18T07:59:01;28.13;;;16.05;;
26407;SDS011;14583;43.604;1.364;2023-09-18T08:01:27;24.00;;;16.15;;
26407;SDS011;14583;43.604;1.364;2023-09-18T08:03:53;33.53;;;15.88;;
26407;SDS011;14583;43.604;1.364;2023-09-18T08:06:19;27.13;;;15.18;;
26407;SDS011;14583;43.604;1.364;2023-09-18T08:08:46;21.77;;;15.82;;
26407;SDS011;14583;43.604;1.364;2023-09-18T08:11:12;39.83;;;16.35;;
26407;SDS011;14583;43.604;1.364;2023-09-18T08:13:38;27.05;;;16.13;;
26407;SDS011;14583;43.604;1.364;2023-09-18T08:16:07;17.80;;;13.98;;
26407;SDS011;14583;43.604;1.364;2023-09-18T08:18:33;31.50;;;17.13;;
26407;SDS011;14583;43.604;1.364;2023-09-18T08:20:59;22.67;;;15.27;;
26407;SDS011;14583;43.604;1.364;2023-09-18T08:23:26;25.30;;;15.95;;
26407;SDS011;14583;43.604;1.364;2023-09-18T08:25:51;26.70;;;16.85;;
26407;SDS011;14583;43.604;1.364;2023-09-18T08:28:22;26.40;;;15.93;;
26407;SDS011;14583;43.604;1.364;2023-09-18T08:30:48;24.90;;;15.80;;
26407;SDS011;14583;43.604;1.364;2023-09-18T08:33:13;31.38;;;17.35;;
26407;SDS011;14583;43.604;1.364;2023-09-18T08:35:39;23.58;;;16.98;;
26407;SDS011;14583;43.604;1.364;2023-09-18T08:38:05;27.65;;;16.33;;
26407;SDS011;14583;43.604;1.364;2023-09-18T08:40:32;20.33;;;14.43;;
26407;SDS011;14583;43.604;1.364;2023-09-18T08:42:59;25.00;;;14.25;;
26407;SDS011;14583;43.604;1.364;2023-09-18T08:45:35;25.60;;;14.02;;
26407;SDS011;14583;43.604;1.364;2023-09-18T08:48:08;25.27;;;13.68;;
26407;SDS011;14583;43.604;1.364;2023-09-18T08:50:34;23.42;;;13.45;;
26407;SDS011;14583;43.604;1.364;2023-09-18T08:53:01;31.95;;;13.35;;
26407;SDS011;14583;43.604;1.364;2023-09-18T08:55:28;27.58;;;13.57;;
26407;SDS011;14583;43.604;1.364;2023-09-18T08:57:54;24.80;;;12.40;;
26407;SDS011;14583;43.604;1.364;2023-09-18T09:00:22;24.30;;;13.75;;
26407;SDS011;14583;43.604;1.364;2023-09-18T09:02:48;25.00;;;12.35;;
26407;SDS011;14583;43.604;1.364;2023-09-18T09:05:16;29.02;;;12.85;;
26407;SDS011;14583;43.604;1.364;2023-09-18T09:07:41;24.17;;;12.88;;
26407;SDS011;14583;43.604;1.364;2023-09-18T09:10:07;22.13;;;10.48;;
26407;SDS011;14583;43.604;1.364;2023-09-18T09:15:24;18.80;;;10.13;;
26407;SDS011;14583;43.604;1.364;2023-09-18T09:17:52;23.48;;;12.32;;
26407;SDS011;14583;43.604;1.364;2023-09-18T09:20:30;22.75;;;11.77;;
26407;SDS011;14583;43.604;1.364;2023-09-18T09:23:00;22.75;;;11.13;;
26407;SDS011;14583;43.604;1.364;2023-09-18T09:25:28;22.10;;;10.75;;
26407;SDS011;14583;43.604;1.364;2023-09-18T09:27:56;19.60;;;10.50;;
26407;SDS011;14583;43.604;1.364;2023-09-18T09:30:33;15.65;;;9.55;;
26407;SDS011;14583;43.604;1.364;2023-09-18T09:33:00;13.23;;;8.65;;
26407;SDS011;14583;43.604;1.364;2023-09-18T09:35:36;19.23;;;10.38;;
26407;SDS011;14583;43.604;1.364;2023-09-18T09:38:15;19.38;;;10.80;;
26407;SDS011;14583;43.604;1.364;2023-09-18T09:40:41;15.07;;;9.70;;
26407;SDS011;14583;43.604;1.364;2023-09-18T09:43:12;16.80;;;9.23;;
26407;SDS011;14583;43.604;1.364;2023-09-18T09:45:40;18.70;;;10.73;;
26407;SDS011;14583;43.604;1.364;2023-09-18T09:48:06;16.48;;;9.18;;
26407;SDS011;14583;43.604;1.364;2023-09-18T09:50:33;20.73;;;10.00;;
26407;SDS011;14583;43.604;1.364;2023-09-18T09:53:11;22.65;;;8.60;;
26407;SDS011;14583;43.604;1.364;2023-09-18T09:55:37;16.33;;;8.30;;
26407;SDS011;14583;43.604;1.364;2023-09-18T09:58:04;21.42;;;9.23;;
26407;SDS011;14583;43.604;1.364;2023-09-18T10:00:32;14.27;;;8.38;;
26407;SDS011;14583;43.604;1.364;2023-09-18T10:03:08;15.52;;;8.70;;
26407;SDS011;14583;43.604;1.364;2023-09-18T10:05:39;19.67;;;10.13;;
26407;SDS011;14583;43.604;1.364;2023-09-18T10:08:08;16.88;;;9.27;;
26407;SDS011;14583;43.604;1.364;2023-09-18T10:10:47;12.80;;;7.53;;
26407;SDS011;14583;43.604;1.364;2023-09-18T10:13:23;15.48;;;8.38;;
26407;SDS011;14583;43.604;1.364;2023-09-18T10:15:57;16.52;;;8.68;;
26407;SDS011;14583;43.604;1.364;2023-09-18T10:18:44;16.00;;;7.90;;
26407;SDS011;14583;43.604;1.364;2023-09-18T10:21:24;18.52;;;8.40;;
26407;SDS011;14583;43.604;1.364;2023-09-18T10:24:25;13.88;;;7.70;;
26407;SDS011;14583;43.604;1.364;2023-09-18T10:27:01;15.53;;;9.83;;
26407;SDS011;14583;43.604;1.364;2023-09-18T10:29:28;14.48;;;7.50;;
26407;SDS011;14583;43.604;1.364;2023-09-18T10:31:56;13.23;;;6.78;;
26407;SDS011;14583;43.604;1.364;2023-09-18T10:34:22;14.75;;;6.93;;
26407;SDS011;14583;43.604;1.364;2023-09-18T10:36:50;12.15;;;5.50;;
26407;SDS011;14583;43.604;1.364;2023-09-18T10:39:17;11.55;;;5.55;;
26407;SDS011;14583;43.604;1.364;2023-09-18T10:41:48;11.90;;;5.50;;
26407;SDS011;14583;43.604;1.364;2023-09-18T10:44:16;13.73;;;6.20;;
26407;SDS011;14583;43.604;1.364;2023-09-18T10:46:45;11.50;;;5.43;;
26407;SDS011;14583;43.604;1.364;2023-09-18T10:49:12;8.35;;;5.38;;
26407;SDS011;14583;43.604;1.364;2023-09-18T10:51:38;8.75;;;5.30;;
26407;SDS011;14583;43.604;1.364;2023-09-18T10:54:09;10.77;;;5.28;;
26407;SDS011;14583;43.604;1.364;2023-09-18T10:56:36;11.02;;;5.57;;
26407;SDS011;14583;43.604;1.364;2023-09-18T10:59:03;14.48;;;5.70;;
26407;SDS011;14583;43.604;1.364;2023-09-18T11:01:32;9.93;;;6.30;;
26407;SDS011;14583;43.604;1.364;2023-09-18T11:04:01;8.45;;;5.00;;
26407;SDS011;14583;43.604;1.364;2023-09-18T11:11:52;11.40;;;4.60;;
26407;SDS011;14583;43.604;1.364;2023-09-18T11:14:22;7.70;;;4.30;;
26407;SDS011;14583;43.604;1.364;2023-09-18T11:17:06;7.95;;;4.97;;
26407;SDS011;14583;43.604;1.364;2023-09-18T11:19:57;9.63;;;4.60;;
26407;SDS011;14583;43.604;1.364;2023-09-18T11:22:34;7.55;;;3.90;;
26407;SDS011;14583;43.604;1.364;2023-09-18T11:28:12;10.35;;;4.70;;
26407;SDS011;14583;43.604;1.364;2023-09-18T11:30:52;9.68;;;4.03;;
26407;SDS011;14583;43.604;1.364;2023-09-18T11:33:38;9.23;;;4.45;;
26407;SDS011;14583;43.604;1.364;2023-09-18T11:36:05;5.80;;;3.92;;
26407;SDS011;14583;43.604;1.364;2023-09-18T11:38:32;13.35;;;4.00;;
26407;SDS011;14583;43.604;1.364;2023-09-18T11:41:20;7.07;;;3.90;;
26407;SDS011;14583;43.604;1.364;2023-09-18T11:44:21;5.85;;;3.80;;
26407;SDS011;14583;43.604;1.364;2023-09-18T11:46:45;4.60;;;3.40;;
26407;SDS011;14583;43.604;1.364;2023-09-18T11:49:13;8.55;;;3.67;;
26407;SDS011;14583;43.604;1.364;2023-09-18T11:51:41;7.20;;;3.67;;
26407;SDS011;14583;43.604;1.364;2023-09-18T11:54:07;6.35;;;3.47;;
26407;SDS011;14583;43.604;1.364;2023-09-18T11:56:33;4.95;;;3.20;;
26407;SDS011;14583;43.604;1.364;2023-09-18T11:58:59;9.52;;;3.92;;
26407;SDS011;14583;43.604;1.364;2023-09-18T12:01:29;7.85;;;3.40;;
26407;SDS011;14583;43.604;1.364;2023-09-18T12:04:02;7.85;;;3.78;;
26407;SDS011;14583;43.604;1.364;2023-09-18T12:06:38;12.45;;;3.97;;
26407;SDS011;14583;43.604;1.364;2023-09-18T12:09:05;9.90;;;3.25;;
26407;SDS011;14583;43.604;1.364;2023-09-18T12:11:32;5.80;;;3.55;;
26407;SDS011;14583;43.604;1.364;2023-09-18T12:14:00;10.50;;;3.72;;
26407;SDS011;14583;43.604;1.364;2023-09-18T12:16:27;8.35;;;3.78;;
26407;SDS011;14583;43.604;1.364;2023-09-18T12:18:53;6.32;;;3.60;;
26407;SDS011;14583;43.604;1.364;2023-09-18T12:21:19;8.95;;;4.53;;
26407;SDS011;14583;43.604;1.364;2023-09-18T12:23:45;6.63;;;3.85;;
26407;SDS011;14583;43.604;1.364;2023-09-18T12:26:12;8.40;;;3.83;;
26407;SDS011;14583;43.604;1.364;2023-09-18T12:28:42;11.20;;;4.28;;
26407;SDS011;14583;43.604;1.364;2023-09-18T12:31:11;6.97;;;3.70;;
26407;SDS011;14583;43.604;1.364;2023-09-18T12:33:38;7.82;;;4.05;;
26407;SDS011;14583;43.604;1.364;2023-09-18T12:36:05;10.70;;;3.80;;
26407;SDS011;14583;43.604;1.364;2023-09-18T12:38:33;7.80;;;3.78;;
26407;SDS011;14583;43.604;1.364;2023-09-18T12:40:59;9.13;;;4.30;;
26407;SDS011;14583;43.604;1.364;2023-09-18T12:43:38;8.57;;;4.03;;
26407;SDS011;14583;43.604;1.364;2023-09-18T12:46:06;10.23;;;3.97;;
26407;SDS011;14583;43.604;1.364;2023-09-18T12:48:36;10.23;;;4.28;;
26407;SDS011;14583;43.604;1.364;2023-09-18T12:51:04;5.65;;;3.42;;
26407;SDS011;14583;43.604;1.364;2023-09-18T12:53:31;9.48;;;3.83;;
26407;SDS011;14583;43.604;1.364;2023-09-18T12:58:42;6.05;;;3.75;;
26407;SDS011;14583;43.604;1.364;2023-09-18T13:01:09;6.40;;;4.00;;
26407;SDS011;14583;43.604;1.364;2023-09-18T13:03:43;9.75;;;3.67;;
26407;SDS011;14583;43.604;1.364;2023-09-18T13:06:11;11.77;;;3.85;;
26407;SDS011;14583;43.604;1.364;2023-09-18T13:08:46;7.97;;;3.38;;
26407;SDS011;14583;43.604;1.364;2023-09-18T13:11:12;5.75;;;3.00;;
26407;SDS011;14583;43.604;1.364;2023-09-18T13:13:40;7.68;;;3.22;;
26407;SDS011;14583;43.604;1.364;2023-09-18T13:16:09;4.80;;;2.60;;
26407;SDS011;14583;43.604;1.364;2023-09-18T13:18:35;4.00;;;2.40;;
26407;SDS011;14583;43.604;1.364;2023-09-18T13:21:08;5.30;;;2.60;;
26407;SDS011;14583;43.604;1.364;2023-09-18T13:23:39;7.22;;;2.60;;
26407;SDS011;14583;43.604;1.364;2023-09-18T13:26:05;3.60;;;2.30;;
26407;SDS011;14583;43.604;1.364;2023-09-18T13:28:35;6.68;;;2.78;;
26407;SDS011;14583;43.604;1.364;2023-09-18T13:31:04;4.50;;;2.38;;
26407;SDS011;14583;43.604;1.364;2023-09-18T13:33:30;4.90;;;3.17;;
26407;SDS011;14583;43.604;1.364;2023-09-18T13:35:57;8.48;;;2.95;;
26407;SDS011;14583;43.604;1.364;2023-09-18T13:38:24;10.80;;;3.38;;
26407;SDS011;14583;43.604;1.364;2023-09-18T13:40:51;5.55;;;2.60;;
26407;SDS011;14583;43.604;1.364;2023-09-18T13:43:19;6.70;;;2.83;;
26407;SDS011;14583;43.604;1.364;2023-09-18T13:45:47;5.55;;;3.08;;
26407;SDS011;14583;43.604;1.364;2023-09-18T13:48:16;5.10;;;2.35;;
26407;SDS011;14583;43.604;1.364;2023-09-18T13:50:42;5.05;;;2.40;;
26407;SDS011;14583;43.604;1.364;2023-09-18T13:53:11;4.43;;;2.50;;
26407;SDS011;14583;43.604;1.364;2023-09-18T13:55:37;5.03;;;2.33;;
26407;SDS011;14583;43.604;1.364;2023-09-18T13:58:03;8.05;;;4.22;;
26407;SDS011;14583;43.604;1.364;2023-09-18T14:00:29;6.35;;;2.83;;
26407;SDS011;14583;43.604;1.364;2023-09-18T14:02:55;7.28;;;3.15;;
26407;SDS011;14583;43.604;1.364;2023-09-18T14:05:21;8.73;;;3.10;;
26407;SDS011;14583;43.604;1.364;2023-09-18T14:07:47;16.45;;;3.60;;
26407;SDS011;14583;43.604;1.364;2023-09-18T14:10:13;8.52;;;3.00;;
26407;SDS011;14583;43.604;1.364;2023-09-18T14:12:39;14.35;;;2.63;;
26407;SDS011;14583;43.604;1.364;2023-09-18T14:15:06;5.25;;;2.60;;
26407;SDS011;14583;43.604;1.364;2023-09-18T14:17:33;12.68;;;3.40;;
26407;SDS011;14583;43.604;1.364;2023-09-18T14:19:59;13.10;;;2.53;;
26407;SDS011;14583;43.604;1.364;2023-09-18T14:22:25;3.75;;;1.98;;
26407;SDS011;14583;43.604;1.364;2023-09-18T14:24:51;4.65;;;2.17;;
26407;SDS011;14583;43.604;1.364;2023-09-18T14:27:17;3.60;;;1.83;;
26407;SDS011;14583;43.604;1.364;2023-09-18T14:29:43;3.70;;;1.55;;
26407;SDS011;14583;43.604;1.364;2023-09-18T14:32:08;4.43;;;1.45;;
26407;SDS011;14583;43.604;1.364;2023-09-18T14:34:35;4.03;;;1.75;;
26407;SDS011;14583;43.604;1.364;2023-09-18T14:37:01;2.05;;;1.30;;
26407;SDS011;14583;43.604;1.364;2023-09-18T14:39:31;3.92;;;1.42;;
26407;SDS011;14583;43.604;1.364;2023-09-18T14:41:57;4.85;;;1.33;;
26407;SDS011;14583;43.604;1.364;2023-09-18T14:44:24;2.33;;;1.40;;
26407;SDS011;14583;43.604;1.364;2023-09-18T14:46:52;2.03;;;1.48;;
26407;SDS011;14583;43.604;1.364;2023-09-18T14:49:21;3.05;;;1.33;;
26407;SDS011;14583;43.604;1.364;2023-09-18T14:51:47;1.45;;;1.30;;
26407;SDS011;14583;43.604;1.364;2023-09-18T14:54:14;4.43;;;1.33;;